Time;durP1;ratioP1;P1;durP2;ratioP2;P2;SDS_P1;SDS_P2;PMS_P1;PMS_P2;Temp;Humidity;BMP_temperature;BMP_pressure;BME280_temperature;BME280_humidity;BME280_pressure;Samples;Min_cycle;Max_cycle;Signal;HPM_P1;HPM_P2
2022/05/03 00:02:52;;;;;;;7.60;5.93;;;7.20;99.90;;;;;;4993248;28;20381;-72
2022/05/03 00:05:52;;;;;;;6.30;5.70;;;7.20;99.90;;;;;;4992969;28;20381;-71
2022/05/03 00:08:39;;;;;;;6.45;5.22;;;7.00;99.90;;;;;;5001298;28;20048;-71
2022/05/03 00:11:16;;;;;;;6.07;5.40;;;7.00;99.90;;;;;;4990282;28;20419;-71
2022/05/03 00:14:10;;;;;;;9.85;6.10;;;7.00;99.90;;;;;;4995629;28;20403;-72
2022/05/03 00:16:37;;;;;;;6.30;5.60;;;6.90;99.90;;;;;;4979734;28;20048;-71
2022/05/03 00:19:07;;;;;;;7.28;5.22;;;6.90;99.90;;;;;;4996130;28;20410;-72
2022/05/03 00:21:37;;;;;;;4.95;4.45;;;6.90;99.90;;;;;;4995374;28;20085;-71
2022/05/03 00:24:05;;;;;;;6.13;5.53;;;6.90;99.90;;;;;;4996108;28;20439;-72
2022/05/03 00:26:31;;;;;;;5.15;4.65;;;6.90;99.90;;;;;;4996018;28;20049;-73
2022/05/03 00:28:58;;;;;;;7.53;5.15;;;6.80;99.90;;;;;;4995973;28;20037;-72
2022/05/03 00:31:25;;;;;;;5.93;4.70;;;6.70;99.90;;;;;;4995610;28;20050;-71
2022/05/03 00:33:53;;;;;;;7.22;6.10;;;6.70;99.90;;;;;;4995447;28;20176;-72
2022/05/03 00:36:18;;;;;;;8.38;6.63;;;6.70;99.90;;;;;;4995792;28;20042;-72
2022/05/03 00:38:44;;;;;;;8.75;6.90;;;6.70;99.90;;;;;;4995532;28;20492;-72
2022/05/03 00:41:17;;;;;;;5.45;4.00;;;6.70;99.90;;;;;;4995497;28;20611;-71
2022/05/03 00:44:01;;;;;;;4.80;4.32;;;6.70;99.90;;;;;;5013004;28;20107;-72
2022/05/03 00:46:34;;;;;;;5.43;4.93;;;6.60;99.90;;;;;;4995339;28;20048;-71
2022/05/03 00:49:15;;;;;;;5.40;4.90;;;6.60;99.90;;;;;;4994875;28;20073;-72
2022/05/03 00:52:05;;;;;;;5.65;5.15;;;6.60;99.90;;;;;;5011660;28;20036;-71
2022/05/03 00:54:44;;;;;;;3.90;3.55;;;6.60;99.90;;;;;;4995126;28;20176;-71
2022/05/03 00:57:15;;;;;;;3.70;3.30;;;6.40;99.90;;;;;;4995182;28;20501;-71
2022/05/03 00:59:58;;;;;;;5.10;4.25;;;6.30;99.90;;;;;;4978946;28;20038;-71
2022/05/03 01:02:34;;;;;;;7.25;5.47;;;6.10;99.90;;;;;;4995202;28;20034;-71
2022/05/03 01:05:09;;;;;;;7.20;6.35;;;6.10;99.90;;;;;;4994922;28;20038;-71
2022/05/03 01:07:36;;;;;;;7.95;6.88;;;6.10;99.90;;;;;;4994985;28;20041;-71
2022/05/03 01:10:01;;;;;;;8.45;6.30;;;6.00;99.90;;;;;;4994624;28;20045;-71
2022/05/03 01:12:56;;;;;;;8.45;6.13;;;6.00;99.90;;;;;;4978670;28;20516;-71
2022/05/03 01:15:37;;;;;;;6.60;5.55;;;6.00;99.90;;;;;;4985814;28;20049;-71
2022/05/03 01:18:28;;;;;;;6.95;6.20;;;6.00;99.90;;;;;;4994851;28;20048;-71
2022/05/03 01:21:20;;;;;;;5.28;4.50;;;6.00;99.90;;;;;;4994520;28;20033;-71
2022/05/03 01:23:52;;;;;;;6.35;3.90;;;6.00;99.90;;;;;;4994655;28;20042;-71
2022/05/03 01:26:45;;;;;;;5.55;4.45;;;5.90;99.90;;;;;;4978469;28;20081;-71
2022/05/03 01:29:33;;;;;;;5.68;5.18;;;5.80;99.90;;;;;;4978663;28;20045;-72
2022/05/03 01:32:01;;;;;;;6.50;5.72;;;5.70;99.90;;;;;;4994470;28;20052;-71
2022/05/03 01:34:28;;;;;;;6.32;5.20;;;5.80;99.90;;;;;;4994562;28;20034;-72
2022/05/03 01:37:00;;;;;;;6.22;5.63;;;5.80;99.90;;;;;;4999903;28;20042;-72
2022/05/03 01:39:53;;;;;;;7.13;6.00;;;5.80;99.90;;;;;;4992602;28;20052;-71
2022/05/03 01:42:39;;;;;;;8.98;6.15;;;5.90;99.90;;;;;;4992717;28;20066;-71
2022/05/03 01:45:10;;;;;;;6.00;5.07;;;5.90;99.90;;;;;;4952147;28;20053;-72
2022/05/03 01:47:56;;;;;;;8.60;5.30;;;5.90;99.90;;;;;;4992750;28;20038;-71
2022/05/03 01:50:41;;;;;;;4.70;4.30;;;5.90;99.90;;;;;;4992226;28;20101;-72
2022/05/03 01:53:25;;;;;;;8.00;5.50;;;5.80;99.90;;;;;;4992329;28;20108;-72
2022/05/03 01:56:22;;;;;;;7.45;6.13;;;5.80;99.90;;;;;;5010062;28;20070;-72
2022/05/03 01:59:06;;;;;;;9.68;7.00;;;5.80;99.90;;;;;;4993769;28;20042;-72
2022/05/03 02:02:06;;;;;;;7.22;5.53;;;5.80;99.90;;;;;;4997637;28;20042;-72
2022/05/03 02:04:50;;;;;;;8.07;6.85;;;5.70;99.90;;;;;;4998276;28;20042;-71
2022/05/03 02:07:40;;;;;;;6.75;6.05;;;5.70;99.90;;;;;;4998307;28;20042;-72
2022/05/03 02:10:18;;;;;;;13.90;6.63;;;5.60;99.90;;;;;;4998054;28;20046;-72
2022/05/03 02:12:52;;;;;;;8.57;7.53;;;5.60;99.90;;;;;;4998127;28;20042;-71
2022/05/03 02:15:31;;;;;;;11.68;7.47;;;5.60;99.90;;;;;;4981901;28;20049;-71
2022/05/03 02:18:05;;;;;;;9.80;6.80;;;5.60;99.90;;;;;;4998099;28;20087;-71
2022/05/03 02:21:02;;;;;;;11.15;7.57;;;5.60;99.90;;;;;;4997336;28;20042;-71
2022/05/03 02:23:30;;;;;;;9.50;7.40;;;5.60;99.90;;;;;;4980920;28;20042;-71
2022/05/03 02:26:30;;;;;;;9.05;7.75;;;5.60;99.90;;;;;;4990190;28;20073;-71
2022/05/03 02:29:13;;;;;;;10.63;7.72;;;5.70;99.90;;;;;;4998002;28;20132;-71
2022/05/03 02:31:54;;;;;;;8.82;7.32;;;5.70;99.90;;;;;;4997640;28;20092;-71
2022/05/03 02:34:38;;;;;;;7.32;6.40;;;5.70;99.90;;;;;;4997679;28;20040;-71
2022/05/03 02:37:11;;;;;;;7.43;5.78;;;5.70;99.90;;;;;;4997807;28;20061;-71
2022/05/03 02:39:45;;;;;;;5.95;5.05;;;5.70;99.90;;;;;;4997495;28;20123;-71
2022/05/03 02:42:13;;;;;;;10.88;5.60;;;5.60;99.90;;;;;;5001328;28;20091;-71
2022/05/03 02:44:40;;;;;;;6.03;5.10;;;5.50;99.90;;;;;;4992962;28;20117;-71
2022/05/03 02:47:11;;;;;;;6.00;5.40;;;5.50;99.90;;;;;;4990837;28;20145;-71
2022/05/03 02:49:37;;;;;;;7.07;5.72;;;5.50;99.90;;;;;;4985801;28;20034;-71
2022/05/03 02:52:17;;;;;;;5.53;4.90;;;5.50;99.90;;;;;;4987281;28;20049;-71
2022/05/03 02:55:06;;;;;;;7.03;5.95;;;5.40;99.90;;;;;;4994206;28;20073;-72
2022/05/03 02:57:58;;;;;;;4.90;3.95;;;5.30;99.90;;;;;;4991918;28;20041;-72
2022/05/03 03:03:37;;;;;;;9.05;7.18;;;5.20;99.90;;;;;;4993200;28;20061;-72
2022/05/03 03:06:04;;;;;;;7.90;5.10;;;5.20;99.90;;;;;;4987216;28;20116;-72
2022/05/03 03:08:44;;;;;;;17.38;4.40;;;5.10;99.90;;;;;;4982941;28;20047;-72
2022/05/03 03:11:23;;;;;;;6.93;5.32;;;5.10;99.90;;;;;;4989906;28;20042;-71
2022/05/03 03:14:19;;;;;;;7.53;6.75;;;5.10;99.90;;;;;;5008432;28;20034;-72
2022/05/03 03:17:00;;;;;;;7.70;7.00;;;5.10;99.90;;;;;;4992809;28;20034;-72
2022/05/03 03:20:05;;;;;;;14.95;7.88;;;5.00;99.90;;;;;;4984836;28;20041;-72
2022/05/03 03:22:35;;;;;;;6.55;5.95;;;4.90;99.90;;;;;;4993635;28;20504;-72
2022/05/03 03:25:02;;;;;;;8.57;6.78;;;4.90;99.90;;;;;;4997104;28;20045;-72
2022/05/03 03:27:31;;;;;;;9.02;7.18;;;4.90;99.90;;;;;;4996871;28;20046;-72
2022/05/03 03:29:58;;;;;;;12.40;5.28;;;4.90;99.90;;;;;;4996624;28;20423;-72
2022/05/03 03:32:25;;;;;;;5.30;4.90;;;5.00;99.90;;;;;;4996645;28;20092;-72
2022/05/03 03:35:01;;;;;;;7.47;5.25;;;4.90;99.90;;;;;;4996898;28;20370;-72
2022/05/03 03:37:33;;;;;;;135.93;8.18;;;4.90;99.90;;;;;;4996851;28;20423;-72
2022/05/03 03:40:00;;;;;;;15.02;4.03;;;4.80;99.90;;;;;;5013952;28;20033;-72
2022/05/03 03:42:29;;;;;;;8.68;7.78;;;4.70;99.90;;;;;;4996791;28;20157;-73
2022/05/03 03:45:06;;;;;;;9.13;7.65;;;4.70;99.90;;;;;;4996458;28;20124;-72
2022/05/03 03:47:32;;;;;;;8.10;6.95;;;4.60;99.90;;;;;;4996373;28;20049;-72
2022/05/03 03:49:58;;;;;;;8.23;7.43;;;4.60;99.90;;;;;;4996143;28;20663;-72
2022/05/03 03:52:25;;;;;;;7.97;7.18;;;4.60;99.90;;;;;;4996628;28;20772;-72
2022/05/03 03:54:52;;;;;;;7.55;6.75;;;4.60;99.90;;;;;;4996544;28;20428;-72
2022/05/03 03:57:20;;;;;;;7.32;6.63;;;4.60;99.90;;;;;;4996430;28;20468;-72
2022/05/03 03:59:46;;;;;;;11.10;7.20;;;4.60;99.90;;;;;;4996009;28;20288;-72
2022/05/03 04:02:12;;;;;;;8.02;7.10;;;4.70;99.90;;;;;;4996241;28;20647;-72
2022/05/03 04:04:40;;;;;;;9.50;7.88;;;4.70;99.90;;;;;;4996199;28;20041;-72
2022/05/03 04:07:06;;;;;;;9.77;7.53;;;4.70;99.90;;;;;;4996352;28;20488;-72
2022/05/03 04:09:32;;;;;;;8.30;7.38;;;4.70;99.90;;;;;;4995969;28;20049;-72
2022/05/03 04:12:03;;;;;;;8.10;6.65;;;4.70;99.90;;;;;;4996234;28;20366;-72
2022/05/03 04:14:29;;;;;;;7.53;6.82;;;4.70;99.90;;;;;;4995898;28;20046;-72
2022/05/03 04:16:55;;;;;;;12.90;7.50;;;4.70;99.90;;;;;;4995909;28;20111;-72
2022/05/03 04:19:22;;;;;;;39.15;6.70;;;4.80;99.90;;;;;;4996159;28;20053;-72
2022/05/03 04:21:48;;;;;;;7.00;6.30;;;4.80;99.90;;;;;;4995678;28;20484;-72
2022/05/03 04:24:14;;;;;;;7.65;6.13;;;4.70;99.90;;;;;;5012632;28;20388;-72
2022/05/03 04:26:39;;;;;;;7.90;6.93;;;4.70;99.90;;;;;;4995657;28;20205;-72
2022/05/03 04:29:05;;;;;;;8.35;7.47;;;4.70;99.90;;;;;;4995860;28;20408;-72
2022/05/03 04:31:32;;;;;;;7.05;6.35;;;4.70;99.90;;;;;;5012773;28;20037;-72
2022/05/03 04:34:00;;;;;;;7.78;7.07;;;4.70;99.90;;;;;;4995496;28;20046;-72
2022/05/03 04:36:26;;;;;;;8.65;7.20;;;4.70;99.90;;;;;;4995892;28;20041;-72
2022/05/03 04:38:52;;;;;;;11.25;6.72;;;4.80;99.90;;;;;;4995737;28;20038;-72
2022/05/03 04:41:21;;;;;;;8.88;6.25;;;4.80;99.90;;;;;;4995454;28;20038;-72
2022/05/03 04:43:47;;;;;;;7.28;6.57;;;4.90;99.90;;;;;;4995493;28;20091;-72
2022/05/03 04:46:12;;;;;;;7.07;5.88;;;4.90;99.90;;;;;;5012995;28;20476;-72
2022/05/03 04:48:39;;;;;;;8.07;7.28;;;5.00;99.90;;;;;;5013030;28;20044;-72
2022/05/03 04:51:06;;;;;;;7.60;6.85;;;5.00;99.90;;;;;;4995007;28;20041;-72
2022/05/03 04:53:32;;;;;;;7.18;6.47;;;5.10;99.90;;;;;;4995176;28;20037;-72
2022/05/03 04:55:59;;;;;;;10.00;8.10;;;5.10;99.90;;;;;;4995298;28;20045;-72
2022/05/03 04:58:24;;;;;;;10.75;8.85;;;5.10;99.90;;;;;;4995322;28;20488;-72
2022/05/03 05:00:50;;;;;;;8.10;7.30;;;5.20;99.90;;;;;;4994969;28;20179;-72
2022/05/03 05:03:16;;;;;;;8.73;7.82;;;5.20;99.90;;;;;;4995376;28;20087;-72
2022/05/03 05:05:41;;;;;;;11.02;8.50;;;5.30;99.90;;;;;;4995189;28;20053;-72
2022/05/03 05:08:08;;;;;;;9.45;8.55;;;5.30;99.90;;;;;;4979528;28;20042;-72
2022/05/03 05:10:34;;;;;;;9.32;6.82;;;5.30;99.90;;;;;;4995009;28;20137;-71
2022/05/03 05:13:00;;;;;;;11.23;8.68;;;5.40;99.90;;;;;;4994626;28;20492;-72
2022/05/03 05:15:27;;;;;;;11.05;8.93;;;5.30;99.90;;;;;;4994917;28;20037;-72
2022/05/03 05:17:56;;;;;;;10.05;9.05;;;5.40;99.90;;;;;;4995104;28;20046;-72
2022/05/03 05:20:22;;;;;;;13.60;9.70;;;5.30;99.90;;;;;;4994806;28;20042;-72
2022/05/03 05:22:48;;;;;;;10.85;9.75;;;5.30;99.90;;;;;;4994684;28;20534;-72
2022/05/03 05:25:14;;;;;;;14.05;12.27;;;5.40;99.90;;;;;;4995091;28;20045;-72
2022/05/03 05:27:40;;;;;;;15.27;11.90;;;5.50;99.90;;;;;;5012044;28;20117;-72
2022/05/03 05:30:07;;;;;;;12.82;11.15;;;5.60;99.90;;;;;;4991486;28;20046;-72
2022/05/03 05:32:36;;;;;;;13.13;10.40;;;5.60;99.90;;;;;;4983502;28;20038;-72
2022/05/03 05:35:04;;;;;;;14.68;10.73;;;5.60;99.90;;;;;;4983795;28;20068;-72
2022/05/03 05:37:33;;;;;;;17.08;10.07;;;5.70;99.90;;;;;;4988491;28;20038;-72
2022/05/03 05:39:58;;;;;;;14.43;10.55;;;5.70;99.90;;;;;;4992733;28;20045;-72
2022/05/03 05:42:26;;;;;;;13.98;10.82;;;5.80;99.90;;;;;;4976660;28;20042;-72
2022/05/03 05:44:52;;;;;;;13.18;10.70;;;5.80;99.90;;;;;;4973233;28;20053;-72
2022/05/03 05:47:18;;;;;;;19.65;13.05;;;5.90;99.90;;;;;;4981658;28;20080;-72
2022/05/03 05:49:43;;;;;;;16.88;13.05;;;6.00;99.90;;;;;;4981305;28;20038;-72
2022/05/03 05:54:53;;;;;;;15.48;13.27;;;6.30;99.90;;;;;;4989175;28;20046;-72
2022/05/03 05:57:20;;;;;;;16.42;13.70;;;6.40;99.90;;;;;;4973315;28;20069;-72
2022/05/03 05:59:46;;;;;;;15.32;13.73;;;6.60;99.90;;;;;;4974452;28;20125;-72
2022/05/03 06:02:11;;;;;;;16.98;13.90;;;6.70;99.90;;;;;;4991598;28;20041;-72
2022/05/03 06:04:37;;;;;;;18.98;15.48;;;6.80;99.90;;;;;;4993941;28;20045;-72
2022/05/03 06:07:03;;;;;;;22.17;15.73;;;7.00;99.90;;;;;;4994559;28;20042;-72
2022/05/03 06:09:29;;;;;;;21.55;18.92;;;7.20;99.90;;;;;;4994115;28;20069;-72
2022/05/03 06:11:54;;;;;;;21.52;19.02;;;7.30;99.90;;;;;;4994208;28;20069;-72
2022/05/03 06:14:20;;;;;;;21.92;18.95;;;7.50;99.90;;;;;;5011859;28;20038;-73
2022/05/03 06:16:50;;;;;;;26.77;21.02;;;7.70;99.90;;;;;;4981105;28;20045;-72
2022/05/03 06:19:16;;;;;;;28.45;21.25;;;7.80;99.90;;;;;;4975029;28;20385;-73
2022/05/03 06:21:41;;;;;;;30.92;23.90;;;8.00;99.90;;;;;;4977216;28;20030;-72
2022/05/03 06:24:08;;;;;;;31.63;23.35;;;8.20;99.90;;;;;;4984294;28;20096;-72
2022/05/03 06:26:34;;;;;;;34.03;25.38;;;8.30;99.90;;;;;;4991109;28;20064;-72
2022/05/03 06:29:06;;;;;;;32.38;26.38;;;8.50;99.90;;;;;;4976842;28;20131;-72
2022/05/03 06:31:36;;;;;;;32.83;26.70;;;8.70;99.90;;;;;;4986712;28;20393;-72
2022/05/03 06:34:05;;;;;;;31.27;24.98;;;8.80;99.90;;;;;;4982684;28;20129;-72
2022/05/03 06:36:33;;;;;;;29.67;24.88;;;8.90;99.90;;;;;;4984276;28;20034;-73
2022/05/03 06:38:59;;;;;;;32.75;25.48;;;9.00;99.90;;;;;;4984600;28;20034;-72
2022/05/03 06:41:25;;;;;;;37.00;27.88;;;9.20;99.90;;;;;;4984231;28;20122;-74
2022/05/03 06:43:50;;;;;;;33.55;26.52;;;9.30;99.90;;;;;;5015520;28;20121;-72
2022/05/03 06:46:17;;;;;;;36.35;28.15;;;9.40;99.90;;;;;;5015543;28;20046;-73
2022/05/03 06:48:42;;;;;;;33.83;27.23;;;9.50;99.90;;;;;;4996179;28;20071;-73
2022/05/03 06:51:08;;;;;;;36.58;26.90;;;9.60;99.90;;;;;;4995863;28;20056;-72
2022/05/03 06:53:34;;;;;;;33.97;27.85;;;9.70;99.90;;;;;;4979777;28;20034;-72
2022/05/03 06:56:02;;;;;;;38.63;28.58;;;9.80;99.90;;;;;;4996057;28;20042;-73
2022/05/03 06:58:28;;;;;;;35.97;27.77;;;9.80;99.90;;;;;;4995861;28;20037;-73
2022/05/03 07:00:54;;;;;;;35.17;26.88;;;9.90;99.90;;;;;;4995586;28;20038;-73
2022/05/03 07:03:20;;;;;;;39.28;28.00;;;10.00;99.90;;;;;;4995820;28;20048;-73
2022/05/03 07:05:45;;;;;;;41.50;28.95;;;10.00;99.90;;;;;;4995623;28;20037;-73
2022/05/03 07:08:11;;;;;;;41.03;28.33;;;10.00;99.90;;;;;;4979853;28;20124;-73
2022/05/03 07:10:38;;;;;;;44.88;29.25;;;10.10;99.90;;;;;;4995506;28;20038;-73
2022/05/03 07:13:04;;;;;;;58.50;33.30;;;10.10;99.90;;;;;;4995717;28;20124;-73
2022/05/03 07:15:30;;;;;;;60.70;34.83;;;10.20;99.90;;;;;;4995394;28;20133;-73
2022/05/03 07:23:26;;;;;;;64.45;38.38;;;10.30;99.90;;;;;;4979879;28;20050;-73
2022/05/03 07:25:53;;;;;;;63.35;39.13;;;10.40;99.90;;;;;;4977315;28;20049;-73
2022/05/03 07:28:19;;;;;;;56.75;37.00;;;10.40;99.90;;;;;;4977445;28;20100;-72
2022/05/03 07:30:45;;;;;;;61.20;36.92;;;10.50;99.90;;;;;;4976885;28;20452;-72
2022/05/03 07:33:11;;;;;;;81.18;42.15;;;10.50;99.90;;;;;;4979330;28;20082;-72
2022/05/03 07:35:37;;;;;;;79.68;41.55;;;10.60;99.90;;;;;;4975248;28;20042;-73
2022/05/03 07:38:03;;;;;;;86.55;42.38;;;10.60;99.90;;;;;;4975202;28;20390;-73
2022/05/03 07:40:28;;;;;;;89.25;42.13;;;10.60;99.90;;;;;;4992451;28;20452;-73
2022/05/03 07:42:55;;;;;;;93.57;44.47;;;10.60;99.90;;;;;;4975162;28;20124;-73
2022/05/03 07:45:20;;;;;;;90.88;43.13;;;10.60;99.90;;;;;;4981660;28;20037;-73
2022/05/03 07:47:46;;;;;;;112.40;47.67;;;10.70;99.90;;;;;;4978608;28;20185;-72
2022/05/03 07:50:12;;;;;;;108.68;46.88;;;10.70;99.90;;;;;;4995341;28;20116;-72
2022/05/03 07:52:38;;;;;;;107.95;47.10;;;10.70;99.90;;;;;;4996126;28;20050;-72
2022/05/03 07:55:07;;;;;;;99.05;46.17;;;10.70;99.90;;;;;;4980145;28;20049;-72
2022/05/03 07:57:32;;;;;;;114.28;45.83;;;10.80;99.90;;;;;;4996013;28;20034;-73
2022/05/03 07:59:58;;;;;;;107.70;43.95;;;10.90;99.90;;;;;;4979808;28;20061;-72
2022/05/03 08:02:25;;;;;;;109.28;45.30;;;10.90;99.90;;;;;;4996429;28;20121;-73
2022/05/03 08:04:52;;;;;;;100.22;44.28;;;10.90;99.90;;;;;;4995961;28;20041;-72
2022/05/03 08:07:18;;;;;;;98.38;42.65;;;10.90;99.90;;;;;;4996048;28;20049;-72
2022/05/03 08:09:45;;;;;;;88.30;40.85;;;11.00;99.90;;;;;;4995765;28;20069;-72
2022/05/03 08:12:11;;;;;;;94.13;41.10;;;10.90;99.90;;;;;;4996245;28;20048;-72
2022/05/03 08:14:37;;;;;;;78.93;37.53;;;10.90;99.90;;;;;;4995811;28;20056;-72
2022/05/03 08:17:04;;;;;;;80.07;37.20;;;10.90;99.90;;;;;;4996097;28;20528;-72
2022/05/03 08:19:30;;;;;;;78.70;37.45;;;10.90;99.90;;;;;;4995663;28;20049;-72
2022/05/03 08:21:56;;;;;;;73.55;35.38;;;10.80;99.90;;;;;;4995658;28;20408;-72
2022/05/03 08:24:23;;;;;;;66.15;35.85;;;10.90;99.90;;;;;;4995938;28;20120;-72
2022/05/03 08:26:48;;;;;;;58.78;31.83;;;10.90;99.90;;;;;;4995599;28;20049;-73
2022/05/03 08:29:15;;;;;;;64.70;31.27;;;10.90;99.90;;;;;;4995681;28;20526;-73
2022/05/03 08:31:41;;;;;;;59.72;30.63;;;10.90;99.90;;;;;;4995367;28;20041;-73
2022/05/03 08:34:07;;;;;;;57.38;29.98;;;10.90;99.90;;;;;;4994985;28;20558;-73
2022/05/03 08:36:33;;;;;;;54.03;30.20;;;10.90;99.90;;;;;;4995527;28;20116;-73
2022/05/03 08:42:02;;;;;;;48.85;26.75;;;10.90;99.90;;;;;;4995071;28;20050;-72
2022/05/03 08:44:32;;;;;;;42.60;23.73;;;10.90;99.90;;;;;;4979106;28;20041;-73
2022/05/03 08:46:59;;;;;;;37.08;20.90;;;10.90;99.90;;;;;;4979098;28;20038;-73
2022/05/03 08:49:37;;;;;;;35.33;19.73;;;10.90;99.90;;;;;;4979029;28;20046;-73
2022/05/03 08:52:03;;;;;;;34.97;19.08;;;11.10;99.90;;;;;;4995382;28;20045;-74
2022/05/03 08:54:31;;;;;;;31.55;17.65;;;11.00;99.90;;;;;;4995453;28;20050;-72
2022/05/03 08:56:57;;;;;;;31.40;14.85;;;11.00;99.90;;;;;;4995009;28;20066;-72
2022/05/03 08:59:24;;;;;;;30.20;13.75;;;11.10;99.90;;;;;;4995188;28;20524;-72
2022/05/03 09:01:50;;;;;;;29.00;12.85;;;11.20;99.90;;;;;;4978632;28;20133;-73
2022/05/03 09:04:15;;;;;;;24.67;12.15;;;11.30;99.90;;;;;;4994866;28;20187;-73
2022/05/03 09:06:46;;;;;;;24.90;11.50;;;11.30;99.90;;;;;;4978734;28;20046;-73
2022/05/03 09:09:14;;;;;;;19.60;10.88;;;11.40;99.90;;;;;;4994542;28;20046;-73
2022/05/03 09:11:57;;;;;;;23.63;11.25;;;11.40;99.90;;;;;;4994675;28;20104;-73
2022/05/03 09:14:40;;;;;;;25.88;10.25;;;11.40;99.90;;;;;;4994861;28;20056;-73
2022/05/03 09:17:06;;;;;;;19.70;9.60;;;11.40;99.90;;;;;;4994748;28;20535;-72
2022/05/03 09:19:33;;;;;;;21.30;8.65;;;11.40;99.90;;;;;;4994630;28;20096;-72
2022/05/03 09:25:02;;;;;;;18.02;8.68;;;11.60;99.90;;;;;;4994725;28;20076;-72
2022/05/03 09:27:30;;;;;;;20.30;8.75;;;11.50;99.90;;;;;;4978236;28;20041;-72
2022/05/03 09:30:00;;;;;;;14.15;7.72;;;11.50;99.90;;;;;;4994393;28;20046;-72
2022/05/03 09:32:40;;;;;;;16.55;7.78;;;11.50;99.90;;;;;;4994675;28;20045;-72
2022/05/03 09:35:26;;;;;;;13.75;7.32;;;11.40;99.90;;;;;;4994472;28;20065;-72
2022/05/03 09:37:52;;;;;;;16.52;7.60;;;11.40;99.90;;;;;;4994395;28;20220;-72
2022/05/03 09:40:18;;;;;;;15.27;7.18;;;11.40;99.90;;;;;;4994244;28;20506;-72
2022/05/03 09:42:52;;;;;;;14.35;7.85;;;11.40;99.90;;;;;;4979575;28;20607;-73
2022/05/03 09:45:22;;;;;;;18.35;8.35;;;11.50;99.90;;;;;;4973327;28;20049;-72
2022/05/03 09:47:53;;;;;;;17.77;8.35;;;11.50;99.90;;;;;;4973206;28;20042;-72
2022/05/03 09:50:36;;;;;;;17.55;8.70;;;11.50;99.90;;;;;;4972596;28;20038;-72
2022/05/03 09:53:17;;;;;;;19.40;8.40;;;11.50;99.90;;;;;;4989160;28;20038;-72
2022/05/03 09:55:46;;;;;;;16.17;7.72;;;11.50;99.90;;;;;;4972856;28;20046;-72
2022/05/03 09:58:14;;;;;;;20.80;8.70;;;11.50;99.90;;;;;;4989361;28;20043;-73
2022/05/03 10:00:46;;;;;;;21.13;8.15;;;11.50;99.90;;;;;;4991435;28;20034;-72
2022/05/03 10:03:13;;;;;;;22.77;8.90;;;11.50;99.90;;;;;;4974850;28;20042;-72
2022/05/03 10:05:41;;;;;;;21.83;8.48;;;11.60;99.90;;;;;;4990846;28;20041;-72
2022/05/03 10:08:11;;;;;;;25.02;8.75;;;11.60;99.90;;;;;;4991005;28;20092;-73
2022/05/03 10:10:39;;;;;;;22.98;8.60;;;11.60;99.90;;;;;;4990752;28;20140;-73
2022/05/03 10:13:05;;;;;;;23.42;8.50;;;11.70;99.90;;;;;;4974795;28;20394;-73
2022/05/03 10:21:15;;;;;;;19.98;8.60;;;11.70;99.90;;;;;;4975586;28;20046;-73
2022/05/03 10:23:41;;;;;;;23.00;8.57;;;11.70;99.90;;;;;;4978520;28;20081;-73
2022/05/03 10:26:11;;;;;;;20.50;7.63;;;11.80;99.90;;;;;;4994535;28;20079;-73
2022/05/03 10:29:08;;;;;;;26.05;8.80;;;11.80;99.90;;;;;;4994694;28;20050;-73
2022/05/03 10:31:53;;;;;;;22.52;7.90;;;11.90;99.90;;;;;;4994366;28;20053;-73
2022/05/03 10:34:47;;;;;;;21.52;7.50;;;11.90;99.90;;;;;;4994487;28;20484;-73
2022/05/03 10:37:16;;;;;;;16.70;7.03;;;12.00;99.90;;;;;;4976372;28;20056;-73
2022/05/03 10:39:49;;;;;;;18.65;7.07;;;12.10;99.90;;;;;;4977987;28;20042;-73
2022/05/03 10:42:15;;;;;;;24.17;7.85;;;12.10;99.90;;;;;;4978104;28;20034;-72
2022/05/03 10:44:42;;;;;;;18.80;6.90;;;12.10;99.90;;;;;;4978154;28;20050;-72
2022/05/03 10:47:09;;;;;;;27.15;7.63;;;12.10;99.90;;;;;;4978095;28;20046;-73
2022/05/03 10:49:34;;;;;;;22.70;6.75;;;12.20;99.90;;;;;;4977919;28;20125;-73
2022/05/03 10:52:14;;;;;;;20.33;6.18;;;12.20;99.90;;;;;;4978061;28;20473;-73
2022/05/03 10:55:09;;;;;;;22.60;6.97;;;12.30;99.90;;;;;;4977866;28;20049;-73
2022/05/03 10:58:12;;;;;;;22.13;6.93;;;12.40;99.90;;;;;;4977835;28;20042;-73
2022/05/03 11:01:04;;;;;;;20.35;6.15;;;12.50;99.90;;;;;;4977642;28;20038;-72
2022/05/03 11:03:30;;;;;;;22.05;6.57;;;12.50;99.90;;;;;;4977839;28;20050;-72
2022/05/03 11:06:28;;;;;;;25.00;7.03;;;12.60;99.90;;;;;;4993830;28;20038;-72
2022/05/03 11:09:02;;;;;;;19.85;6.38;;;12.60;99.90;;;;;;5004850;23;20485;-72
2022/05/03 11:11:42;;;;;;;19.80;6.57;;;12.70;99.90;;;;;;5016840;28;20445;-72
2022/05/03 11:14:20;;;;;;;21.13;7.07;;;12.70;99.90;;;;;;5016809;28;20395;-72
2022/05/03 11:16:51;;;;;;;21.30;6.72;;;12.70;99.90;;;;;;5017031;28;20057;-72
2022/05/03 11:19:22;;;;;;;20.77;6.32;;;12.70;99.90;;;;;;5016584;28;20037;-72
2022/05/03 11:21:49;;;;;;;16.98;6.07;;;12.70;99.90;;;;;;5016845;28;20442;-72
2022/05/03 11:24:23;;;;;;;16.88;5.40;;;12.70;99.90;;;;;;5016789;28;20510;-72
2022/05/03 11:26:54;;;;;;;15.55;5.22;;;12.70;99.90;;;;;;5016704;28;20454;-72
2022/05/03 11:29:20;;;;;;;16.23;4.95;;;12.80;99.90;;;;;;5016703;28;20398;-72
2022/05/03 11:31:52;;;;;;;14.50;4.78;;;12.90;99.90;;;;;;5016045;28;20472;-72
2022/05/03 11:34:18;;;;;;;14.60;4.82;;;12.90;99.90;;;;;;5033989;28;20436;-72
2022/05/03 11:36:50;;;;;;;11.23;4.47;;;13.00;99.90;;;;;;5016245;28;20033;-72
2022/05/03 11:39:20;;;;;;;15.48;5.40;;;13.00;99.90;;;;;;5016265;28;20120;-72
2022/05/03 11:41:47;;;;;;;15.02;4.75;;;13.10;99.90;;;;;;5016177;28;20045;-72
2022/05/03 11:44:14;;;;;;;14.20;4.90;;;13.10;99.90;;;;;;5033959;28;20438;-72
2022/05/03 11:46:42;;;;;;;17.20;4.35;;;13.20;99.90;;;;;;5016265;28;20038;-72
2022/05/03 11:49:09;;;;;;;18.95;4.55;;;13.20;99.90;;;;;;5016197;28;20406;-71
2022/05/03 11:57:25;;;;;;;17.00;5.03;;;13.50;99.90;;;;;;5016009;28;20407;-72
2022/05/03 11:59:58;;;;;;;12.70;4.18;;;13.50;99.90;;;;;;5015657;28;20069;-72
2022/05/03 12:02:30;;;;;;;19.30;4.95;;;13.50;99.90;;;;;;4981973;28;20480;-72
2022/05/03 12:05:06;;;;;;;13.20;4.32;;;13.60;99.90;;;;;;5014240;28;20451;-71
2022/05/03 12:07:37;;;;;;;17.95;4.72;;;13.70;99.90;;;;;;5015857;28;20033;-72
2022/05/03 12:10:19;;;;;;;11.63;4.05;;;13.80;99.90;;;;;;5013170;28;20458;-72
2022/05/03 12:13:08;;;;;;;16.98;4.25;;;13.80;99.90;;;;;;5013748;28;20199;-71
2022/05/03 12:15:39;;;;;;;18.05;4.43;;;13.70;99.90;;;;;;5032567;28;20033;-72
2022/05/03 12:18:09;;;;;;;15.75;4.25;;;13.70;99.90;;;;;;5031815;28;20120;-72
2022/05/03 12:21:08;;;;;;;13.10;4.18;;;13.80;99.90;;;;;;5014872;28;20038;-72
2022/05/03 12:23:34;;;;;;;17.55;4.15;;;13.90;99.90;;;;;;4998553;28;20041;-72
2022/05/03 12:26:13;;;;;;;16.33;4.53;;;13.90;99.90;;;;;;5015455;28;20379;-72
2022/05/03 12:28:41;;;;;;;21.23;4.55;;;13.90;99.90;;;;;;5009865;28;20053;-72
2022/05/03 12:31:09;;;;;;;14.23;3.83;;;14.00;99.90;;;;;;5032324;28;20030;-72
2022/05/03 12:33:46;;;;;;;17.05;4.07;;;14.00;99.90;;;;;;5032425;28;20503;-72
2022/05/03 12:36:46;;;;;;;12.50;3.97;;;14.10;99.90;;;;;;5015122;28;20042;-72
2022/05/03 12:39:17;;;;;;;15.38;4.03;;;14.20;99.90;;;;;;4997104;28;20049;-73
2022/05/03 12:41:53;;;;;;;15.00;3.80;;;14.30;99.90;;;;;;5012664;28;20037;-73
2022/05/03 12:44:21;;;;;;;10.75;3.33;;;14.40;99.90;;;;;;5027878;28;20041;-73
2022/05/03 12:46:49;;;;;;;10.60;3.38;;;14.50;99.90;;;;;;5014778;28;20065;-73
2022/05/03 12:49:15;;;;;;;11.60;3.25;;;14.60;99.90;;;;;;5014638;28;20045;-73
2022/05/03 12:51:43;;;;;;;8.35;3.63;;;14.80;99.90;;;;;;5014578;28;20048;-73
2022/05/03 12:54:10;;;;;;;11.00;3.28;;;14.90;99.70;;;;;;5014468;28;20041;-73
2022/05/03 12:59:22;;;;;;;9.18;2.88;;;15.30;94.00;;;;;;5012505;28;20037;-74
2022/05/03 13:01:50;;;;;;;5.85;2.80;;;15.30;96.90;;;;;;5031694;28;20063;-73
2022/05/03 13:04:17;;;;;;;9.70;3.10;;;15.50;97.70;;;;;;5031986;28;20033;-73
2022/05/03 13:06:44;;;;;;;9.25;3.15;;;15.40;95.60;;;;;;5032125;28;20040;-73
2022/05/03 13:09:10;;;;;;;11.10;3.35;;;15.40;96.60;;;;;;5014092;28;20048;-73
2022/05/03 13:11:38;;;;;;;9.15;2.80;;;15.30;95.40;;;;;;5014151;28;20064;-73
2022/05/03 13:14:08;;;;;;;10.65;3.28;;;15.40;97.50;;;;;;5031873;28;20037;-73
2022/05/03 13:16:35;;;;;;;8.82;2.90;;;15.50;92.50;;;;;;5014157;28;20072;-73
2022/05/03 13:19:04;;;;;;;10.05;2.80;;;15.60;92.00;;;;;;5014363;28;20037;-73
2022/05/03 13:21:33;;;;;;;8.95;2.80;;;15.80;94.00;;;;;;5014062;28;20041;-73
2022/05/03 13:23:59;;;;;;;10.35;2.60;;;15.90;91.90;;;;;;5030782;28;20052;-73
2022/05/03 13:26:25;;;;;;;12.18;2.78;;;16.00;91.30;;;;;;5013985;28;20056;-73
2022/05/03 13:28:50;;;;;;;12.77;2.67;;;16.00;91.60;;;;;;5014192;28;20124;-73
2022/05/03 13:31:16;;;;;;;10.35;2.78;;;16.10;91.00;;;;;;5031241;28;20120;-73
2022/05/03 13:33:42;;;;;;;10.00;3.05;;;16.10;90.70;;;;;;5013967;28;20037;-73
2022/05/03 13:41:36;;;;;;;7.85;2.30;;;16.00;87.10;;;;;;5011040;28;20033;-73
2022/05/03 13:44:02;;;;;;;8.95;2.45;;;16.00;83.00;;;;;;5030286;28;20041;-73